sensor_id;sensor_type;location;lat;lon;timestamp;P1;durP1;ratioP1;P2;durP2;ratioP2
13331;SDS011;6735;51.456;12.626;2023-02-26T00:01:02;1.80;;;1.70;;
13331;SDS011;6735;51.456;12.626;2023-02-26T00:03:35;3.37;;;1.80;;
13331;SDS011;6735;51.456;12.626;2023-02-26T00:06:01;3.00;;;1.80;;
13331;SDS011;6735;51.456;12.626;2023-02-26T00:08:26;2.57;;;1.90;;
13331;SDS011;6735;51.456;12.626;2023-02-26T00:10:52;2.63;;;1.93;;
13331;SDS011;6735;51.456;12.626;2023-02-26T00:13:18;2.60;;;1.80;;
13331;SDS011;6735;51.456;12.626;2023-02-26T00:15:44;2.93;;;2.00;;
13331;SDS011;6735;51.456;12.626;2023-02-26T00:18:12;1.93;;;1.80;;
13331;SDS011;6735;51.456;12.626;2023-02-26T00:20:39;2.57;;;2.00;;
13331;SDS011;6735;51.456;12.626;2023-02-26T00:23:09;2.10;;;1.90;;
13331;SDS011;6735;51.456;12.626;2023-02-26T00:25:38;2.10;;;1.90;;
13331;SDS011;6735;51.456;12.626;2023-02-26T00:28:04;3.70;;;2.10;;
13331;SDS011;6735;51.456;12.626;2023-02-26T00:30:29;3.00;;;1.90;;
13331;SDS011;6735;51.456;12.626;2023-02-26T00:32:55;2.03;;;1.80;;
13331;SDS011;6735;51.456;12.626;2023-02-26T00:35:21;3.20;;;2.03;;
13331;SDS011;6735;51.456;12.626;2023-02-26T00:40:42;2.37;;;2.00;;
13331;SDS011;6735;51.456;12.626;2023-02-26T00:45:44;3.77;;;2.90;;
13331;SDS011;6735;51.456;12.626;2023-02-26T00:51:08;1.87;;;1.70;;
13331;SDS011;6735;51.456;12.626;2023-02-26T00:53:59;3.60;;;1.87;;
13331;SDS011;6735;51.456;12.626;2023-02-26T00:56:30;2.33;;;2.17;;
13331;SDS011;6735;51.456;12.626;2023-02-26T00:58:55;4.70;;;3.00;;
13331;SDS011;6735;51.456;12.626;2023-02-26T01:01:21;4.23;;;2.90;;
13331;SDS011;6735;51.456;12.626;2023-02-26T01:03:47;4.03;;;2.73;;
13331;SDS011;6735;51.456;12.626;2023-02-26T01:06:14;3.83;;;2.53;;
13331;SDS011;6735;51.456;12.626;2023-02-26T01:08:47;4.67;;;3.07;;
13331;SDS011;6735;51.456;12.626;2023-02-26T01:11:36;4.77;;;2.90;;
13331;SDS011;6735;51.456;12.626;2023-02-26T01:14:02;2.63;;;2.20;;
13331;SDS011;6735;51.456;12.626;2023-02-26T01:16:29;4.70;;;2.50;;
13331;SDS011;6735;51.456;12.626;2023-02-26T01:19:11;3.10;;;2.50;;
13331;SDS011;6735;51.456;12.626;2023-02-26T01:21:45;5.87;;;2.90;;
13331;SDS011;6735;51.456;12.626;2023-02-26T01:24:18;4.53;;;3.10;;
13331;SDS011;6735;51.456;12.626;2023-02-26T01:26:46;5.20;;;2.80;;
13331;SDS011;6735;51.456;12.626;2023-02-26T01:29:14;3.17;;;2.33;;
13331;SDS011;6735;51.456;12.626;2023-02-26T01:31:49;3.57;;;2.67;;
13331;SDS011;6735;51.456;12.626;2023-02-26T01:37:13;3.70;;;2.40;;
13331;SDS011;6735;51.456;12.626;2023-02-26T01:39:49;4.67;;;2.50;;
13331;SDS011;6735;51.456;12.626;2023-02-26T01:42:31;3.33;;;2.03;;
13331;SDS011;6735;51.456;12.626;2023-02-26T01:45:02;3.67;;;2.23;;
13331;SDS011;6735;51.456;12.626;2023-02-26T01:47:50;2.50;;;2.30;;
13331;SDS011;6735;51.456;12.626;2023-02-26T01:50:22;2.73;;;2.40;;
13331;SDS011;6735;51.456;12.626;2023-02-26T01:53:14;3.73;;;2.30;;
13331;SDS011;6735;51.456;12.626;2023-02-26T01:55:54;5.13;;;2.37;;
13331;SDS011;6735;51.456;12.626;2023-02-26T01:58:29;2.50;;;2.27;;
13331;SDS011;6735;51.456;12.626;2023-02-26T02:00:58;3.10;;;2.30;;
13331;SDS011;6735;51.456;12.626;2023-02-26T02:03:25;3.03;;;2.33;;
13331;SDS011;6735;51.456;12.626;2023-02-26T02:05:55;3.10;;;2.40;;
13331;SDS011;6735;51.456;12.626;2023-02-26T02:08:26;2.33;;;2.13;;
13331;SDS011;6735;51.456;12.626;2023-02-26T02:10:52;2.50;;;2.10;;
13331;SDS011;6735;51.456;12.626;2023-02-26T02:13:24;3.93;;;2.50;;
13331;SDS011;6735;51.456;12.626;2023-02-26T02:18:52;3.43;;;2.10;;
13331;SDS011;6735;51.456;12.626;2023-02-26T02:21:59;3.20;;;2.20;;
13331;SDS011;6735;51.456;12.626;2023-02-26T02:24:50;2.53;;;2.20;;
13331;SDS011;6735;51.456;12.626;2023-02-26T02:27:38;4.33;;;2.23;;
13331;SDS011;6735;51.456;12.626;2023-02-26T02:30:33;4.27;;;2.50;;
13331;SDS011;6735;51.456;12.626;2023-02-26T02:33:10;2.70;;;2.40;;
13331;SDS011;6735;51.456;12.626;2023-02-26T02:35:48;2.60;;;2.40;;
13331;SDS011;6735;51.456;12.626;2023-02-26T02:38:20;3.07;;;2.60;;
13331;SDS011;6735;51.456;12.626;2023-02-26T02:40:51;3.27;;;2.17;;
13331;SDS011;6735;51.456;12.626;2023-02-26T02:43:21;3.17;;;2.20;;
13331;SDS011;6735;51.456;12.626;2023-02-26T02:45:53;4.10;;;2.40;;
13331;SDS011;6735;51.456;12.626;2023-02-26T02:48:56;4.00;;;2.43;;
13331;SDS011;6735;51.456;12.626;2023-02-26T02:51:26;2.90;;;2.40;;
13331;SDS011;6735;51.456;12.626;2023-02-26T02:54:05;2.43;;;2.23;;
13331;SDS011;6735;51.456;12.626;2023-02-26T02:56:34;3.70;;;2.30;;
13331;SDS011;6735;51.456;12.626;2023-02-26T02:59:21;3.17;;;2.23;;
13331;SDS011;6735;51.456;12.626;2023-02-26T03:04:38;2.70;;;2.50;;
13331;SDS011;6735;51.456;12.626;2023-02-26T03:07:05;4.03;;;2.50;;
13331;SDS011;6735;51.456;12.626;2023-02-26T03:09:30;3.53;;;2.50;;
13331;SDS011;6735;51.456;12.626;2023-02-26T03:11:57;4.80;;;2.80;;
13331;SDS011;6735;51.456;12.626;2023-02-26T03:14:22;4.90;;;2.60;;
13331;SDS011;6735;51.456;12.626;2023-02-26T03:19:51;2.90;;;2.60;;
13331;SDS011;6735;51.456;12.626;2023-02-26T03:22:30;4.40;;;2.80;;
13331;SDS011;6735;51.456;12.626;2023-02-26T03:25:07;3.73;;;2.87;;
13331;SDS011;6735;51.456;12.626;2023-02-26T03:27:42;3.80;;;2.90;;
13331;SDS011;6735;51.456;12.626;2023-02-26T03:30:25;2.87;;;2.50;;
13331;SDS011;6735;51.456;12.626;2023-02-26T03:33:17;3.40;;;2.50;;
13331;SDS011;6735;51.456;12.626;2023-02-26T03:35:58;3.57;;;2.40;;
13331;SDS011;6735;51.456;12.626;2023-02-26T03:38:42;4.60;;;2.63;;
13331;SDS011;6735;51.456;12.626;2023-02-26T03:41:17;2.87;;;2.60;;
13331;SDS011;6735;51.456;12.626;2023-02-26T03:43:59;4.50;;;2.60;;
13331;SDS011;6735;51.456;12.626;2023-02-26T03:46:31;6.53;;;2.50;;
13331;SDS011;6735;51.456;12.626;2023-02-26T03:49:00;3.20;;;2.70;;
13331;SDS011;6735;51.456;12.626;2023-02-26T03:51:31;3.60;;;2.80;;
13331;SDS011;6735;51.456;12.626;2023-02-26T03:54:02;3.67;;;2.53;;
13331;SDS011;6735;51.456;12.626;2023-02-26T03:56:40;3.77;;;3.03;;
13331;SDS011;6735;51.456;12.626;2023-02-26T03:59:08;4.33;;;2.50;;
13331;SDS011;6735;51.456;12.626;2023-02-26T04:01:41;2.77;;;2.33;;
13331;SDS011;6735;51.456;12.626;2023-02-26T04:04:13;3.03;;;2.40;;
13331;SDS011;6735;51.456;12.626;2023-02-26T04:06:54;3.67;;;2.60;;
13331;SDS011;6735;51.456;12.626;2023-02-26T04:09:20;2.73;;;2.27;;
13331;SDS011;6735;51.456;12.626;2023-02-26T04:11:47;3.03;;;2.30;;
13331;SDS011;6735;51.456;12.626;2023-02-26T04:14:14;3.00;;;2.70;;
13331;SDS011;6735;51.456;12.626;2023-02-26T04:16:40;4.03;;;2.77;;
13331;SDS011;6735;51.456;12.626;2023-02-26T04:19:07;3.17;;;2.43;;
13331;SDS011;6735;51.456;12.626;2023-02-26T04:21:32;3.03;;;2.63;;
13331;SDS011;6735;51.456;12.626;2023-02-26T04:23:58;3.77;;;2.70;;
13331;SDS011;6735;51.456;12.626;2023-02-26T04:26:23;3.63;;;3.10;;
13331;SDS011;6735;51.456;12.626;2023-02-26T04:28:49;5.17;;;2.50;;
13331;SDS011;6735;51.456;12.626;2023-02-26T04:31:14;3.33;;;2.67;;
13331;SDS011;6735;51.456;12.626;2023-02-26T04:33:40;3.63;;;2.60;;
13331;SDS011;6735;51.456;12.626;2023-02-26T04:36:05;3.33;;;2.43;;
13331;SDS011;6735;51.456;12.626;2023-02-26T04:38:31;7.90;;;2.60;;
13331;SDS011;6735;51.456;12.626;2023-02-26T04:40:57;2.50;;;2.30;;
13331;SDS011;6735;51.456;12.626;2023-02-26T04:43:22;3.57;;;2.50;;
13331;SDS011;6735;51.456;12.626;2023-02-26T04:45:48;3.93;;;2.80;;
13331;SDS011;6735;51.456;12.626;2023-02-26T04:48:13;3.70;;;2.40;;
13331;SDS011;6735;51.456;12.626;2023-02-26T04:50:40;3.00;;;2.40;;
13331;SDS011;6735;51.456;12.626;2023-02-26T04:53:05;3.67;;;2.50;;
13331;SDS011;6735;51.456;12.626;2023-02-26T04:55:32;4.00;;;2.70;;
13331;SDS011;6735;51.456;12.626;2023-02-26T04:57:58;4.60;;;3.05;;
13331;SDS011;6735;51.456;12.626;2023-02-26T05:00:23;5.30;;;2.90;;
13331;SDS011;6735;51.456;12.626;2023-02-26T05:02:49;6.00;;;2.63;;
13331;SDS011;6735;51.456;12.626;2023-02-26T05:05:15;2.40;;;2.20;;
13331;SDS011;6735;51.456;12.626;2023-02-26T05:07:41;4.53;;;2.40;;
13331;SDS011;6735;51.456;12.626;2023-02-26T05:10:07;2.57;;;2.10;;
13331;SDS011;6735;51.456;12.626;2023-02-26T05:12:33;2.43;;;2.03;;
13331;SDS011;6735;51.456;12.626;2023-02-26T05:14:59;2.20;;;2.00;;
13331;SDS011;6735;51.456;12.626;2023-02-26T05:17:25;3.93;;;2.67;;
13331;SDS011;6735;51.456;12.626;2023-02-26T05:19:50;3.10;;;2.10;;
13331;SDS011;6735;51.456;12.626;2023-02-26T05:22:16;3.30;;;1.80;;
13331;SDS011;6735;51.456;12.626;2023-02-26T05:24:41;2.30;;;2.10;;
13331;SDS011;6735;51.456;12.626;2023-02-26T05:27:07;2.33;;;2.13;;
13331;SDS011;6735;51.456;12.626;2023-02-26T05:29:33;3.63;;;2.00;;
13331;SDS011;6735;51.456;12.626;2023-02-26T05:31:59;2.90;;;2.13;;
13331;SDS011;6735;51.456;12.626;2023-02-26T05:34:24;4.90;;;2.43;;
13331;SDS011;6735;51.456;12.626;2023-02-26T05:36:50;4.00;;;2.30;;
13331;SDS011;6735;51.456;12.626;2023-02-26T05:39:15;2.60;;;2.30;;
13331;SDS011;6735;51.456;12.626;2023-02-26T05:41:41;4.37;;;2.33;;
13331;SDS011;6735;51.456;12.626;2023-02-26T05:44:06;2.10;;;2.00;;
13331;SDS011;6735;51.456;12.626;2023-02-26T05:46:33;2.63;;;1.90;;
13331;SDS011;6735;51.456;12.626;2023-02-26T05:48:58;3.10;;;1.90;;
13331;SDS011;6735;51.456;12.626;2023-02-26T05:51:24;2.70;;;2.30;;
13331;SDS011;6735;51.456;12.626;2023-02-26T05:53:49;2.60;;;2.40;;
13331;SDS011;6735;51.456;12.626;2023-02-26T05:56:15;5.20;;;2.30;;
13331;SDS011;6735;51.456;12.626;2023-02-26T05:58:40;3.47;;;2.43;;
13331;SDS011;6735;51.456;12.626;2023-02-26T06:01:06;2.53;;;2.27;;
13331;SDS011;6735;51.456;12.626;2023-02-26T06:03:31;3.60;;;2.93;;
13331;SDS011;6735;51.456;12.626;2023-02-26T06:05:57;4.87;;;3.30;;
13331;SDS011;6735;51.456;12.626;2023-02-26T06:08:22;4.27;;;2.90;;
13331;SDS011;6735;51.456;12.626;2023-02-26T06:10:48;3.87;;;3.23;;
13331;SDS011;6735;51.456;12.626;2023-02-26T06:13:15;4.60;;;3.70;;
13331;SDS011;6735;51.456;12.626;2023-02-26T06:15:41;9.07;;;6.50;;
13331;SDS011;6735;51.456;12.626;2023-02-26T06:18:06;15.70;;;8.40;;
13331;SDS011;6735;51.456;12.626;2023-02-26T06:20:32;15.27;;;8.50;;
13331;SDS011;6735;51.456;12.626;2023-02-26T06:22:58;16.90;;;9.47;;
13331;SDS011;6735;51.456;12.626;2023-02-26T06:25:23;14.87;;;8.53;;
13331;SDS011;6735;51.456;12.626;2023-02-26T06:27:49;14.43;;;8.47;;
13331;SDS011;6735;51.456;12.626;2023-02-26T06:30:15;6.83;;;5.07;;
13331;SDS011;6735;51.456;12.626;2023-02-26T06:32:42;4.67;;;4.00;;
13331;SDS011;6735;51.456;12.626;2023-02-26T06:35:08;4.33;;;2.90;;
13331;SDS011;6735;51.456;12.626;2023-02-26T06:37:34;4.20;;;3.47;;
13331;SDS011;6735;51.456;12.626;2023-02-26T06:40:00;4.10;;;2.70;;
13331;SDS011;6735;51.456;12.626;2023-02-26T06:42:25;6.07;;;2.83;;
13331;SDS011;6735;51.456;12.626;2023-02-26T06:44:51;4.53;;;2.70;;
13331;SDS011;6735;51.456;12.626;2023-02-26T06:47:16;3.57;;;2.80;;
13331;SDS011;6735;51.456;12.626;2023-02-26T06:49:42;4.73;;;2.80;;
13331;SDS011;6735;51.456;12.626;2023-02-26T06:52:07;5.27;;;4.07;;
13331;SDS011;6735;51.456;12.626;2023-02-26T06:54:33;7.50;;;4.77;;
13331;SDS011;6735;51.456;12.626;2023-02-26T06:56:58;3.90;;;3.60;;
13331;SDS011;6735;51.456;12.626;2023-02-26T06:59:25;4.20;;;3.13;;
13331;SDS011;6735;51.456;12.626;2023-02-26T07:01:51;4.97;;;3.70;;
13331;SDS011;6735;51.456;12.626;2023-02-26T07:04:16;4.33;;;2.87;;
13331;SDS011;6735;51.456;12.626;2023-02-26T07:06:42;5.60;;;2.80;;
13331;SDS011;6735;51.456;12.626;2023-02-26T07:09:07;5.00;;;3.17;;
13331;SDS011;6735;51.456;12.626;2023-02-26T07:11:33;5.03;;;2.87;;
13331;SDS011;6735;51.456;12.626;2023-02-26T07:13:58;3.73;;;2.97;;
13331;SDS011;6735;51.456;12.626;2023-02-26T07:16:25;3.77;;;2.90;;
13331;SDS011;6735;51.456;12.626;2023-02-26T07:18:51;5.17;;;2.80;;
13331;SDS011;6735;51.456;12.626;2023-02-26T07:21:16;4.63;;;2.60;;
13331;SDS011;6735;51.456;12.626;2023-02-26T07:23:41;4.03;;;2.30;;
13331;SDS011;6735;51.456;12.626;2023-02-26T07:26:07;4.00;;;2.53;;
13331;SDS011;6735;51.456;12.626;2023-02-26T07:28:32;3.00;;;2.60;;
13331;SDS011;6735;51.456;12.626;2023-02-26T07:30:58;7.07;;;3.23;;
13331;SDS011;6735;51.456;12.626;2023-02-26T07:33:23;4.53;;;2.33;;
13331;SDS011;6735;51.456;12.626;2023-02-26T07:35:50;5.87;;;2.67;;
13331;SDS011;6735;51.456;12.626;2023-02-26T07:38:15;6.53;;;2.70;;
13331;SDS011;6735;51.456;12.626;2023-02-26T07:40:41;7.27;;;3.40;;
13331;SDS011;6735;51.456;12.626;2023-02-26T07:43:06;5.07;;;3.10;;
13331;SDS011;6735;51.456;12.626;2023-02-26T07:45:32;4.00;;;2.40;;
13331;SDS011;6735;51.456;12.626;2023-02-26T07:47:57;4.53;;;2.50;;
13331;SDS011;6735;51.456;12.626;2023-02-26T07:50:23;5.70;;;3.27;;
13331;SDS011;6735;51.456;12.626;2023-02-26T07:52:50;3.70;;;3.00;;
13331;SDS011;6735;51.456;12.626;2023-02-26T07:55:17;4.60;;;3.10;;
13331;SDS011;6735;51.456;12.626;2023-02-26T07:57:43;3.83;;;3.03;;
13331;SDS011;6735;51.456;12.626;2023-02-26T08:00:09;3.83;;;2.80;;
13331;SDS011;6735;51.456;12.626;2023-02-26T08:02:35;3.47;;;2.70;;
13331;SDS011;6735;51.456;12.626;2023-02-26T08:05:01;4.57;;;3.10;;
13331;SDS011;6735;51.456;12.626;2023-02-26T08:07:27;4.17;;;2.50;;
13331;SDS011;6735;51.456;12.626;2023-02-26T08:09:52;3.77;;;2.30;;
13331;SDS011;6735;51.456;12.626;2023-02-26T08:12:17;4.60;;;2.60;;
13331;SDS011;6735;51.456;12.626;2023-02-26T08:14:43;3.60;;;2.10;;
13331;SDS011;6735;51.456;12.626;2023-02-26T08:17:09;4.73;;;2.20;;
13331;SDS011;6735;51.456;12.626;2023-02-26T08:19:35;4.57;;;3.23;;
13331;SDS011;6735;51.456;12.626;2023-02-26T08:22:01;9.13;;;3.60;;
13331;SDS011;6735;51.456;12.626;2023-02-26T08:24:27;5.13;;;2.50;;
13331;SDS011;6735;51.456;12.626;2023-02-26T08:26:52;2.80;;;1.77;;
13331;SDS011;6735;51.456;12.626;2023-02-26T08:29:18;4.33;;;2.50;;
13331;SDS011;6735;51.456;12.626;2023-02-26T08:31:44;2.53;;;2.07;;
13331;SDS011;6735;51.456;12.626;2023-02-26T08:34:09;5.50;;;1.90;;
13331;SDS011;6735;51.456;12.626;2023-02-26T08:36:35;4.57;;;2.30;;
13331;SDS011;6735;51.456;12.626;2023-02-26T08:39:00;3.43;;;2.50;;
13331;SDS011;6735;51.456;12.626;2023-02-26T08:41:26;3.63;;;2.80;;
13331;SDS011;6735;51.456;12.626;2023-02-26T08:43:54;4.50;;;3.37;;
13331;SDS011;6735;51.456;12.626;2023-02-26T08:46:19;4.97;;;3.03;;
13331;SDS011;6735;51.456;12.626;2023-02-26T08:48:45;4.93;;;3.23;;
13331;SDS011;6735;51.456;12.626;2023-02-26T08:51:10;5.27;;;3.40;;
13331;SDS011;6735;51.456;12.626;2023-02-26T08:53:36;3.80;;;3.37;;
13331;SDS011;6735;51.456;12.626;2023-02-26T08:56:01;5.27;;;3.73;;
13331;SDS011;6735;51.456;12.626;2023-02-26T08:58:27;7.50;;;3.67;;
13331;SDS011;6735;51.456;12.626;2023-02-26T09:00:52;3.87;;;3.27;;
13331;SDS011;6735;51.456;12.626;2023-02-26T09:03:18;6.27;;;3.50;;
13331;SDS011;6735;51.456;12.626;2023-02-26T09:05:43;5.13;;;3.30;;
13331;SDS011;6735;51.456;12.626;2023-02-26T09:08:09;4.60;;;3.20;;
13331;SDS011;6735;51.456;12.626;2023-02-26T09:10:35;3.30;;;2.70;;
13331;SDS011;6735;51.456;12.626;2023-02-26T09:13:01;4.37;;;3.20;;
13331;SDS011;6735;51.456;12.626;2023-02-26T09:15:26;4.67;;;2.80;;
13331;SDS011;6735;51.456;12.626;2023-02-26T09:17:52;3.03;;;2.50;;
13331;SDS011;6735;51.456;12.626;2023-02-26T09:20:17;4.10;;;2.33;;
13331;SDS011;6735;51.456;12.626;2023-02-26T09:22:43;4.07;;;2.23;;
13331;SDS011;6735;51.456;12.626;2023-02-26T09:25:08;4.77;;;2.70;;
13331;SDS011;6735;51.456;12.626;2023-02-26T09:27:35;2.80;;;2.07;;
13331;SDS011;6735;51.456;12.626;2023-02-26T09:30:01;5.80;;;2.20;;
13331;SDS011;6735;51.456;12.626;2023-02-26T09:32:27;2.73;;;2.10;;
13331;SDS011;6735;51.456;12.626;2023-02-26T09:34:53;4.00;;;2.60;;
13331;SDS011;6735;51.456;12.626;2023-02-26T09:37:18;4.30;;;2.07;;
13331;SDS011;6735;51.456;12.626;2023-02-26T09:39:44;5.03;;;2.73;;
13331;SDS011;6735;51.456;12.626;2023-02-26T09:44:44;3.00;;;1.97;;
13331;SDS011;6735;51.456;12.626;2023-02-26T09:47:30;3.23;;;1.97;;
13331;SDS011;6735;51.456;12.626;2023-02-26T09:50:08;2.03;;;1.80;;
13331;SDS011;6735;51.456;12.626;2023-02-26T09:57:51;4.00;;;2.30;;
13331;SDS011;6735;51.456;12.626;2023-02-26T10:00:43;2.40;;;2.00;;
13331;SDS011;6735;51.456;12.626;2023-02-26T10:03:30;2.00;;;1.70;;
13331;SDS011;6735;51.456;12.626;2023-02-26T10:06:25;4.27;;;2.73;;
13331;SDS011;6735;51.456;12.626;2023-02-26T10:09:44;3.87;;;2.20;;
13331;SDS011;6735;51.456;12.626;2023-02-26T10:12:08;4.80;;;2.33;;
13331;SDS011;6735;51.456;12.626;2023-02-26T10:20:02;3.40;;;2.27;;
13331;SDS011;6735;51.456;12.626;2023-02-26T10:22:40;2.60;;;1.60;;
13331;SDS011;6735;51.456;12.626;2023-02-26T10:25:13;1.50;;;1.40;;
13331;SDS011;6735;51.456;12.626;2023-02-26T10:30:31;3.43;;;1.50;;
13331;SDS011;6735;51.456;12.626;2023-02-26T10:35:59;3.70;;;2.10;;
13331;SDS011;6735;51.456;12.626;2023-02-26T10:38:37;2.60;;;1.70;;
13331;SDS011;6735;51.456;12.626;2023-02-26T10:41:11;1.97;;;1.77;;
13331;SDS011;6735;51.456;12.626;2023-02-26T10:43:40;2.30;;;2.10;;
13331;SDS011;6735;51.456;12.626;2023-02-26T10:46:26;1.97;;;1.87;;
13331;SDS011;6735;51.456;12.626;2023-02-26T10:52:16;1.60;;;1.50;;
13331;SDS011;6735;51.456;12.626;2023-02-26T10:55:03;2.97;;;2.00;;
13331;SDS011;6735;51.456;12.626;2023-02-26T10:57:41;2.80;;;2.00;;
13331;SDS011;6735;51.456;12.626;2023-02-26T11:00:16;4.53;;;1.80;;
13331;SDS011;6735;51.456;12.626;2023-02-26T11:02:44;2.53;;;2.00;;
13331;SDS011;6735;51.456;12.626;2023-02-26T11:05:16;3.83;;;1.50;;
13331;SDS011;6735;51.456;12.626;2023-02-26T11:07:48;2.00;;;1.90;;
13331;SDS011;6735;51.456;12.626;2023-02-26T11:10:17;4.50;;;1.87;;
13331;SDS011;6735;51.456;12.626;2023-02-26T11:12:45;3.40;;;1.50;;
13331;SDS011;6735;51.456;12.626;2023-02-26T11:15:12;2.23;;;1.30;;
13331;SDS011;6735;51.456;12.626;2023-02-26T11:17:40;1.77;;;1.67;;
13331;SDS011;6735;51.456;12.626;2023-02-26T11:20:29;2.10;;;1.90;;
13331;SDS011;6735;51.456;12.626;2023-02-26T11:23:09;1.67;;;1.40;;
13331;SDS011;6735;51.456;12.626;2023-02-26T11:25:37;1.77;;;1.50;;
13331;SDS011;6735;51.456;12.626;2023-02-26T11:28:05;1.73;;;1.60;;
13331;SDS011;6735;51.456;12.626;2023-02-26T11:30:51;2.80;;;2.00;;
13331;SDS011;6735;51.456;12.626;2023-02-26T11:33:22;2.37;;;2.27;;
13331;SDS011;6735;51.456;12.626;2023-02-26T11:35:53;2.57;;;1.73;;
13331;SDS011;6735;51.456;12.626;2023-02-26T11:38:24;1.63;;;1.40;;
13331;SDS011;6735;51.456;12.626;2023-02-26T11:40:53;2.13;;;1.50;;
13331;SDS011;6735;51.456;12.626;2023-02-26T11:43:21;2.87;;;2.30;;
13331;SDS011;6735;51.456;12.626;2023-02-26T11:45:51;3.10;;;1.60;;
13331;SDS011;6735;51.456;12.626;2023-02-26T11:48:36;1.87;;;1.47;;
13331;SDS011;6735;51.456;12.626;2023-02-26T11:51:05;3.77;;;1.70;;
13331;SDS011;6735;51.456;12.626;2023-02-26T11:53:43;1.87;;;1.43;;
13331;SDS011;6735;51.456;12.626;2023-02-26T11:56:14;3.83;;;1.70;;
13331;SDS011;6735;51.456;12.626;2023-02-26T11:58:50;3.07;;;2.23;;
13331;SDS011;6735;51.456;12.626;2023-02-26T12:01:19;1.50;;;1.40;;
13331;SDS011;6735;51.456;12.626;2023-02-26T12:03:47;2.33;;;1.47;;
13331;SDS011;6735;51.456;12.626;2023-02-26T12:06:19;1.90;;;1.30;;
13331;SDS011;6735;51.456;12.626;2023-02-26T12:08:46;2.00;;;1.50;;
13331;SDS011;6735;51.456;12.626;2023-02-26T12:11:29;4.70;;;1.43;;
13331;SDS011;6735;51.456;12.626;2023-02-26T12:14:15;5.80;;;1.50;;
13331;SDS011;6735;51.456;12.626;2023-02-26T12:17:15;3.43;;;1.60;;
13331;SDS011;6735;51.456;12.626;2023-02-26T12:20:13;4.90;;;1.60;;
13331;SDS011;6735;51.456;12.626;2023-02-26T12:29:02;2.10;;;1.40;;
13331;SDS011;6735;51.456;12.626;2023-02-26T12:31:50;2.10;;;1.77;;
13331;SDS011;6735;51.456;12.626;2023-02-26T12:34:48;1.73;;;1.63;;
13331;SDS011;6735;51.456;12.626;2023-02-26T12:37:54;2.67;;;1.43;;
13331;SDS011;6735;51.456;12.626;2023-02-26T12:40:43;3.53;;;2.00;;
13331;SDS011;6735;51.456;12.626;2023-02-26T12:46:04;1.57;;;1.40;;
13331;SDS011;6735;51.456;12.626;2023-02-26T12:48:47;5.00;;;2.60;;
13331;SDS011;6735;51.456;12.626;2023-02-26T12:54:28;4.30;;;3.43;;
13331;SDS011;6735;51.456;12.626;2023-02-26T13:03:42;3.10;;;2.50;;
13331;SDS011;6735;51.456;12.626;2023-02-26T13:08:40;3.27;;;1.50;;
13331;SDS011;6735;51.456;12.626;2023-02-26T13:11:39;1.60;;;1.50;;
13331;SDS011;6735;51.456;12.626;2023-02-26T13:16:53;3.43;;;2.00;;
13331;SDS011;6735;51.456;12.626;2023-02-26T13:19:38;2.07;;;1.70;;
13331;SDS011;6735;51.456;12.626;2023-02-26T13:22:23;2.57;;;1.67;;
13331;SDS011;6735;51.456;12.626;2023-02-26T13:25:41;2.03;;;1.40;;
13331;SDS011;6735;51.456;12.626;2023-02-26T13:28:17;5.03;;;1.57;;
13331;SDS011;6735;51.456;12.626;2023-02-26T13:30:54;2.73;;;1.10;;
13331;SDS011;6735;51.456;12.626;2023-02-26T13:33:23;2.00;;;1.57;;
13331;SDS011;6735;51.456;12.626;2023-02-26T13:35:52;3.70;;;2.10;;
13331;SDS011;6735;51.456;12.626;2023-02-26T13:38:29;3.10;;;2.07;;
13331;SDS011;6735;51.456;12.626;2023-02-26T13:52:20;1.37;;;1.27;;
13331;SDS011;6735;51.456;12.626;2023-02-26T13:54:48;2.37;;;1.40;;
13331;SDS011;6735;51.456;12.626;2023-02-26T14:00:07;2.03;;;1.70;;
13331;SDS011;6735;51.456;12.626;2023-02-26T14:02:55;2.57;;;1.67;;
13331;SDS011;6735;51.456;12.626;2023-02-26T14:05:30;2.03;;;1.50;;
13331;SDS011;6735;51.456;12.626;2023-02-26T14:13:22;1.87;;;1.67;;
13331;SDS011;6735;51.456;12.626;2023-02-26T14:15:59;1.63;;;1.53;;
13331;SDS011;6735;51.456;12.626;2023-02-26T14:18:36;2.27;;;1.60;;
13331;SDS011;6735;51.456;12.626;2023-02-26T14:23:48;2.63;;;1.60;;
13331;SDS011;6735;51.456;12.626;2023-02-26T14:26:15;2.80;;;1.90;;
13331;SDS011;6735;51.456;12.626;2023-02-26T14:28:54;1.73;;;1.53;;
13331;SDS011;6735;51.456;12.626;2023-02-26T14:31:20;1.60;;;1.50;;
13331;SDS011;6735;51.456;12.626;2023-02-26T14:33:57;2.70;;;1.90;;
13331;SDS011;6735;51.456;12.626;2023-02-26T14:36:35;2.03;;;1.83;;
13331;SDS011;6735;51.456;12.626;2023-02-26T14:42:00;3.17;;;1.50;;
13331;SDS011;6735;51.456;12.626;2023-02-26T14:44:42;2.40;;;1.80;;
13331;SDS011;6735;51.456;12.626;2023-02-26T14:47:10;1.60;;;1.50;;
13331;SDS011;6735;51.456;12.626;2023-02-26T14:49:40;2.27;;;1.50;;
13331;SDS011;6735;51.456;12.626;2023-02-26T14:52:24;2.13;;;1.43;;
13331;SDS011;6735;51.456;12.626;2023-02-26T14:55:22;1.97;;;1.40;;
13331;SDS011;6735;51.456;12.626;2023-02-26T15:01:06;3.17;;;1.60;;
13331;SDS011;6735;51.456;12.626;2023-02-26T15:09:42;2.17;;;1.97;;
13331;SDS011;6735;51.456;12.626;2023-02-26T15:12:13;3.07;;;2.40;;
13331;SDS011;6735;51.456;12.626;2023-02-26T15:17:53;2.00;;;1.57;;
13331;SDS011;6735;51.456;12.626;2023-02-26T15:20:37;2.10;;;1.57;;
13331;SDS011;6735;51.456;12.626;2023-02-26T15:25:42;3.70;;;1.97;;
13331;SDS011;6735;51.456;12.626;2023-02-26T15:28:20;4.83;;;1.73;;
13331;SDS011;6735;51.456;12.626;2023-02-26T15:30:54;4.17;;;2.20;;
13331;SDS011;6735;51.456;12.626;2023-02-26T15:33:22;2.97;;;1.83;;
13331;SDS011;6735;51.456;12.626;2023-02-26T15:35:49;4.37;;;1.97;;
13331;SDS011;6735;51.456;12.626;2023-02-26T15:38:16;5.20;;;2.07;;
13331;SDS011;6735;51.456;12.626;2023-02-26T15:40:42;2.30;;;2.10;;
13331;SDS011;6735;51.456;12.626;2023-02-26T15:43:09;4.43;;;2.60;;
13331;SDS011;6735;51.456;12.626;2023-02-26T15:45:47;3.83;;;2.33;;
13331;SDS011;6735;51.456;12.626;2023-02-26T15:48:32;1.77;;;1.53;;
13331;SDS011;6735;51.456;12.626;2023-02-26T15:51:02;2.03;;;1.80;;
13331;SDS011;6735;51.456;12.626;2023-02-26T15:53:48;2.43;;;2.03;;
13331;SDS011;6735;51.456;12.626;2023-02-26T15:56:17;4.27;;;2.90;;
13331;SDS011;6735;51.456;12.626;2023-02-26T15:58:53;5.37;;;2.50;;
13331;SDS011;6735;51.456;12.626;2023-02-26T16:01:26;6.03;;;3.00;;
13331;SDS011;6735;51.456;12.626;2023-02-26T16:03:55;3.93;;;2.40;;
13331;SDS011;6735;51.456;12.626;2023-02-26T16:06:35;5.13;;;3.33;;
13331;SDS011;6735;51.456;12.626;2023-02-26T16:09:04;4.33;;;2.67;;
13331;SDS011;6735;51.456;12.626;2023-02-26T16:11:31;6.20;;;3.30;;
13331;SDS011;6735;51.456;12.626;2023-02-26T16:13:59;4.10;;;3.50;;
13331;SDS011;6735;51.456;12.626;2023-02-26T16:16:28;3.60;;;2.40;;
13331;SDS011;6735;51.456;12.626;2023-02-26T16:19:10;3.13;;;2.37;;
13331;SDS011;6735;51.456;12.626;2023-02-26T16:21:39;3.07;;;2.60;;
13331;SDS011;6735;51.456;12.626;2023-02-26T16:24:06;5.33;;;3.07;;
13331;SDS011;6735;51.456;12.626;2023-02-26T16:26:36;3.20;;;2.30;;
13331;SDS011;6735;51.456;12.626;2023-02-26T16:29:06;3.67;;;2.10;;
13331;SDS011;6735;51.456;12.626;2023-02-26T16:31:38;3.90;;;2.27;;
13331;SDS011;6735;51.456;12.626;2023-02-26T16:34:20;3.03;;;2.10;;
13331;SDS011;6735;51.456;12.626;2023-02-26T16:36:57;2.13;;;1.93;;
13331;SDS011;6735;51.456;12.626;2023-02-26T16:39:33;2.90;;;2.00;;
13331;SDS011;6735;51.456;12.626;2023-02-26T16:42:11;3.17;;;2.20;;
13331;SDS011;6735;51.456;12.626;2023-02-26T16:44:47;5.57;;;3.30;;
13331;SDS011;6735;51.456;12.626;2023-02-26T16:47:15;5.73;;;4.00;;
13331;SDS011;6735;51.456;12.626;2023-02-26T16:49:41;5.10;;;2.90;;
13331;SDS011;6735;51.456;12.626;2023-02-26T16:52:09;2.70;;;2.50;;
13331;SDS011;6735;51.456;12.626;2023-02-26T16:54:41;3.33;;;2.77;;
13331;SDS011;6735;51.456;12.626;2023-02-26T16:57:17;2.90;;;2.20;;
13331;SDS011;6735;51.456;12.626;2023-02-26T16:59:48;2.37;;;1.80;;